sensor_id;sensor_type;location;lat;lon;timestamp;pressure;altitude;pressure_sealevel;temperature;humidity
12757;BME280;31601;48.042;12.240;2022-11-20T00:01:07;95617.22;;;7.82;70.67
12757;BME280;31601;48.042;12.240;2022-11-20T00:03:34;95616.75;;;7.78;70.30
12757;BME280;31601;48.042;12.240;2022-11-20T00:06:02;95626.41;;;7.78;70.81
12757;BME280;31601;48.042;12.240;2022-11-20T00:08:31;95612.38;;;7.79;70.43
12757;BME280;31601;48.042;12.240;2022-11-20T00:10:57;95622.00;;;7.78;70.60
12757;BME280;31601;48.042;12.240;2022-11-20T00:13:28;95619.31;;;7.86;70.08
12757;BME280;31601;48.042;12.240;2022-11-20T00:15:57;95613.59;;;7.83;70.54
12757;BME280;31601;48.042;12.240;2022-11-20T00:18:24;95621.63;;;7.81;70.67
12757;BME280;31601;48.042;12.240;2022-11-20T00:20:50;95627.31;;;7.85;70.41
12757;BME280;31601;48.042;12.240;2022-11-20T00:23:17;95626.94;;;7.88;70.39
12757;BME280;31601;48.042;12.240;2022-11-20T00:25:45;95632.19;;;7.88;70.47
12757;BME280;31601;48.042;12.240;2022-11-20T00:28:11;95632.78;;;7.90;70.15
12757;BME280;31601;48.042;12.240;2022-11-20T00:30:38;95635.34;;;7.83;70.17
12757;BME280;31601;48.042;12.240;2022-11-20T00:33:05;95626.78;;;7.89;70.27
12757;BME280;31601;48.042;12.240;2022-11-20T00:35:31;95632.19;;;7.88;69.78
12757;BME280;31601;48.042;12.240;2022-11-20T00:37:58;95634.06;;;7.94;69.83
12757;BME280;31601;48.042;12.240;2022-11-20T00:40:24;95641.91;;;7.94;69.76
12757;BME280;31601;48.042;12.240;2022-11-20T00:42:52;95637.47;;;7.95;69.79
12757;BME280;31601;48.042;12.240;2022-11-20T00:45:19;95642.34;;;7.98;69.98
12757;BME280;31601;48.042;12.240;2022-11-20T00:47:45;95643.88;;;7.92;69.60
12757;BME280;31601;48.042;12.240;2022-11-20T00:50:12;95647.13;;;7.94;69.79
12757;BME280;31601;48.042;12.240;2022-11-20T00:52:38;95645.50;;;7.93;69.45
12757;BME280;31601;48.042;12.240;2022-11-20T00:55:05;95650.00;;;7.84;70.08
12757;BME280;31601;48.042;12.240;2022-11-20T00:57:32;95647.66;;;7.89;69.87
12757;BME280;31601;48.042;12.240;2022-11-20T01:00:00;95649.81;;;7.86;69.68
12757;BME280;31601;48.042;12.240;2022-11-20T01:02:26;95656.66;;;7.87;69.70
12757;BME280;31601;48.042;12.240;2022-11-20T01:04:53;95653.25;;;7.86;69.53
12757;BME280;31601;48.042;12.240;2022-11-20T01:07:19;95653.78;;;7.82;69.25
12757;BME280;31601;48.042;12.240;2022-11-20T01:09:46;95662.31;;;7.91;69.31
12757;BME280;31601;48.042;12.240;2022-11-20T01:12:12;95662.31;;;7.91;69.28
12757;BME280;31601;48.042;12.240;2022-11-20T01:14:39;95658.66;;;7.85;69.64
12757;BME280;31601;48.042;12.240;2022-11-20T01:17:07;95667.56;;;7.91;69.62
12757;BME280;31601;48.042;12.240;2022-11-20T01:19:33;95667.38;;;7.92;69.22
12757;BME280;31601;48.042;12.240;2022-11-20T01:22:00;95665.41;;;7.94;69.48
12757;BME280;31601;48.042;12.240;2022-11-20T01:24:26;95665.66;;;7.99;69.31
12757;BME280;31601;48.042;12.240;2022-11-20T01:26:53;95667.00;;;7.95;69.18
12757;BME280;31601;48.042;12.240;2022-11-20T01:29:21;95668.28;;;7.99;69.20
12757;BME280;31601;48.042;12.240;2022-11-20T01:31:48;95664.41;;;7.95;69.50
12757;BME280;31601;48.042;12.240;2022-11-20T01:34:18;95664.88;;;7.99;69.22
12757;BME280;31601;48.042;12.240;2022-11-20T01:36:45;95663.66;;;8.01;69.14
12757;BME280;31601;48.042;12.240;2022-11-20T01:39:14;95672.53;;;8.00;68.90
12757;BME280;31601;48.042;12.240;2022-11-20T01:41:41;95668.81;;;7.95;69.34
12757;BME280;31601;48.042;12.240;2022-11-20T01:44:43;95663.41;;;7.96;69.22
12757;BME280;31601;48.042;12.240;2022-11-20T01:47:14;95667.00;;;7.95;69.21
12757;BME280;31601;48.042;12.240;2022-11-20T01:49:46;95670.34;;;7.89;69.14
12757;BME280;31601;48.042;12.240;2022-11-20T01:52:16;95675.56;;;7.89;69.38
12757;BME280;31601;48.042;12.240;2022-11-20T01:54:47;95673.59;;;7.91;69.38
12757;BME280;31601;48.042;12.240;2022-11-20T01:57:15;95672.34;;;7.87;69.25
12757;BME280;31601;48.042;12.240;2022-11-20T01:59:46;95673.69;;;7.83;69.73
12757;BME280;31601;48.042;12.240;2022-11-20T02:02:14;95675.13;;;7.85;69.12
12757;BME280;31601;48.042;12.240;2022-11-20T02:04:41;95676.56;;;7.88;68.99
12757;BME280;31601;48.042;12.240;2022-11-20T02:07:10;95674.59;;;7.90;69.21
12757;BME280;31601;48.042;12.240;2022-11-20T02:09:36;95675.22;;;7.92;69.21
12757;BME280;31601;48.042;12.240;2022-11-20T02:12:03;95673.25;;;7.94;68.96
12757;BME280;31601;48.042;12.240;2022-11-20T02:14:30;95671.34;;;7.88;69.33
12757;BME280;31601;48.042;12.240;2022-11-20T02:16:55;95674.75;;;7.88;69.30
12757;BME280;31601;48.042;12.240;2022-11-20T02:19:24;95669.91;;;7.85;69.59
12757;BME280;31601;48.042;12.240;2022-11-20T02:21:58;95673.50;;;7.84;69.32
12757;BME280;31601;48.042;12.240;2022-11-20T02:24:27;95671.06;;;7.83;69.78
12757;BME280;31601;48.042;12.240;2022-11-20T02:26:56;95673.06;;;7.81;69.66
12757;BME280;31601;48.042;12.240;2022-11-20T02:29:26;95671.59;;;7.78;69.46
12757;BME280;31601;48.042;12.240;2022-11-20T02:31:55;95671.44;;;7.80;69.80
12757;BME280;31601;48.042;12.240;2022-11-20T02:34:21;95675.41;;;7.76;69.82
12757;BME280;31601;48.042;12.240;2022-11-20T02:36:49;95676.81;;;7.78;69.91
12757;BME280;31601;48.042;12.240;2022-11-20T02:39:16;95676.66;;;7.80;69.71
12757;BME280;31601;48.042;12.240;2022-11-20T02:41:45;95668.38;;;7.76;70.17
12757;BME280;31601;48.042;12.240;2022-11-20T02:44:11;95672.44;;;7.79;70.48
12757;BME280;31601;48.042;12.240;2022-11-20T02:46:38;95665.13;;;7.74;70.35
12757;BME280;31601;48.042;12.240;2022-11-20T02:49:05;95664.59;;;7.79;70.08
12757;BME280;31601;48.042;12.240;2022-11-20T02:51:32;95661.25;;;7.70;70.35
12757;BME280;31601;48.042;12.240;2022-11-20T02:53:58;95665.94;;;7.75;70.51
12757;BME280;31601;48.042;12.240;2022-11-20T02:56:25;95665.31;;;7.73;70.29
12757;BME280;31601;48.042;12.240;2022-11-20T02:58:53;95668.56;;;7.75;70.70
12757;BME280;31601;48.042;12.240;2022-11-20T03:01:20;95672.13;;;7.74;70.66
12757;BME280;31601;48.042;12.240;2022-11-20T03:03:46;95670.25;;;7.67;70.44
12757;BME280;31601;48.042;12.240;2022-11-20T03:06:14;95667.63;;;7.67;70.73
12757;BME280;31601;48.042;12.240;2022-11-20T03:08:40;95661.19;;;7.63;70.66
12757;BME280;31601;48.042;12.240;2022-11-20T03:11:07;95663.50;;;7.58;71.14
12757;BME280;31601;48.042;12.240;2022-11-20T03:13:35;95663.59;;;7.65;70.91
12757;BME280;31601;48.042;12.240;2022-11-20T03:16:08;95662.16;;;7.62;70.77
12757;BME280;31601;48.042;12.240;2022-11-20T03:18:35;95663.97;;;7.62;70.61
12757;BME280;31601;48.042;12.240;2022-11-20T03:21:01;95661.53;;;7.60;70.35
12757;BME280;31601;48.042;12.240;2022-11-20T03:23:29;95665.91;;;7.60;70.39
12757;BME280;31601;48.042;12.240;2022-11-20T03:26:07;95661.78;;;7.65;70.20
12757;BME280;31601;48.042;12.240;2022-11-20T03:28:34;95671.97;;;7.60;70.54
12757;BME280;31601;48.042;12.240;2022-11-20T03:31:06;95669.53;;;7.59;70.29
12757;BME280;31601;48.042;12.240;2022-11-20T03:33:33;95670.69;;;7.56;70.70
12757;BME280;31601;48.042;12.240;2022-11-20T03:36:01;95664.69;;;7.56;70.64
12757;BME280;31601;48.042;12.240;2022-11-20T03:38:28;95669.06;;;7.55;70.87
12757;BME280;31601;48.042;12.240;2022-11-20T03:40:58;95668.09;;;7.56;70.81
12757;BME280;31601;48.042;12.240;2022-11-20T03:43:25;95673.94;;;7.58;70.79
12757;BME280;31601;48.042;12.240;2022-11-20T03:45:51;95672.34;;;7.57;70.38
12757;BME280;31601;48.042;12.240;2022-11-20T03:48:19;95669.06;;;7.55;70.94
12757;BME280;31601;48.042;12.240;2022-11-20T03:50:45;95667.91;;;7.58;70.53
12757;BME280;31601;48.042;12.240;2022-11-20T03:53:13;95668.72;;;7.58;70.95
12757;BME280;31601;48.042;12.240;2022-11-20T03:55:39;95665.91;;;7.60;70.80
12757;BME280;31601;48.042;12.240;2022-11-20T03:58:06;95673.56;;;7.61;70.38
12757;BME280;31601;48.042;12.240;2022-11-20T04:00:32;95672.34;;;7.57;70.60
12757;BME280;31601;48.042;12.240;2022-11-20T04:02:59;95667.09;;;7.57;70.58
12757;BME280;31601;48.042;12.240;2022-11-20T04:05:27;95671.97;;;7.60;70.88
12757;BME280;31601;48.042;12.240;2022-11-20T04:07:54;95669.06;;;7.55;70.48
12757;BME280;31601;48.042;12.240;2022-11-20T04:10:20;95673.56;;;7.61;70.33
12757;BME280;31601;48.042;12.240;2022-11-20T04:12:46;95673.41;;;7.63;70.28
12757;BME280;31601;48.042;12.240;2022-11-20T04:15:13;95679.44;;;7.63;70.54
12757;BME280;31601;48.042;12.240;2022-11-20T04:17:40;95672.25;;;7.65;70.45
12757;BME280;31601;48.042;12.240;2022-11-20T04:20:07;95678.44;;;7.64;70.34
12757;BME280;31601;48.042;12.240;2022-11-20T04:22:35;95674.84;;;7.65;70.11
12757;BME280;31601;48.042;12.240;2022-11-20T04:25:02;95679.44;;;7.63;70.22
12757;BME280;31601;48.042;12.240;2022-11-20T04:27:30;95679.44;;;7.63;70.46
12757;BME280;31601;48.042;12.240;2022-11-20T04:29:57;95676.84;;;7.63;70.46
12757;BME280;31601;48.042;12.240;2022-11-20T04:32:23;95673.56;;;7.61;70.37
12757;BME280;31601;48.042;12.240;2022-11-20T04:34:50;95669.38;;;7.60;70.38
12757;BME280;31601;48.042;12.240;2022-11-20T04:37:16;95670.34;;;7.59;70.29
12757;BME280;31601;48.042;12.240;2022-11-20T04:39:44;95668.88;;;7.57;70.37
12757;BME280;31601;48.042;12.240;2022-11-20T04:42:11;95675.75;;;7.58;70.39
12757;BME280;31601;48.042;12.240;2022-11-20T04:44:56;95680.78;;;7.59;70.04
12757;BME280;31601;48.042;12.240;2022-11-20T04:47:24;95678.78;;;7.61;70.20
12757;BME280;31601;48.042;12.240;2022-11-20T04:49:50;95680.16;;;7.57;69.90
12757;BME280;31601;48.042;12.240;2022-11-20T04:52:17;95682.78;;;7.57;69.74
12757;BME280;31601;48.042;12.240;2022-11-20T04:54:45;95675.13;;;7.56;70.23
12757;BME280;31601;48.042;12.240;2022-11-20T04:57:13;95676.28;;;7.53;70.03
12757;BME280;31601;48.042;12.240;2022-11-20T04:59:41;95676.91;;;7.55;70.20
12757;BME280;31601;48.042;12.240;2022-11-20T05:02:07;95678.09;;;7.52;69.91
12757;BME280;31601;48.042;12.240;2022-11-20T05:04:34;95680.69;;;7.52;70.09
12757;BME280;31601;48.042;12.240;2022-11-20T05:07:00;95675.13;;;7.56;70.23
12757;BME280;31601;48.042;12.240;2022-11-20T05:09:27;95674.47;;;7.53;69.71
12757;BME280;31601;48.042;12.240;2022-11-20T05:11:54;95674.19;;;7.48;70.08
12757;BME280;31601;48.042;12.240;2022-11-20T05:14:21;95678.50;;;7.41;69.90
12757;BME280;31601;48.042;12.240;2022-11-20T05:16:47;95674.72;;;7.44;69.99
12757;BME280;31601;48.042;12.240;2022-11-20T05:19:14;95678.16;;;7.44;69.67
12757;BME280;31601;48.042;12.240;2022-11-20T05:21:40;95682.38;;;7.45;70.10
12757;BME280;31601;48.042;12.240;2022-11-20T05:24:07;95683.84;;;7.48;69.91
12757;BME280;31601;48.042;12.240;2022-11-20T05:26:34;95686.44;;;7.48;69.60
12757;BME280;31601;48.042;12.240;2022-11-20T05:29:01;95684.56;;;7.42;69.60
12757;BME280;31601;48.042;12.240;2022-11-20T05:31:28;95687.16;;;7.42;69.58
12757;BME280;31601;48.042;12.240;2022-11-20T05:33:56;95682.66;;;7.35;69.58
12757;BME280;31601;48.042;12.240;2022-11-20T05:36:23;95689.13;;;7.40;69.77
12757;BME280;31601;48.042;12.240;2022-11-20T05:38:49;95686.06;;;7.36;69.59
12757;BME280;31601;48.042;12.240;2022-11-20T05:41:18;95684.59;;;7.33;69.97
12757;BME280;31601;48.042;12.240;2022-11-20T05:43:47;95677.47;;;7.27;69.71
12757;BME280;31601;48.042;12.240;2022-11-20T05:46:16;95691.19;;;7.29;69.95
12757;BME280;31601;48.042;12.240;2022-11-20T05:48:44;95684.16;;;7.30;69.48
12757;BME280;31601;48.042;12.240;2022-11-20T05:51:12;95693.50;;;7.24;69.55
12757;BME280;31601;48.042;12.240;2022-11-20T05:53:40;95688.22;;;7.32;69.81
12757;BME280;31601;48.042;12.240;2022-11-20T05:56:07;95689.38;;;7.30;69.46
12757;BME280;31601;48.042;12.240;2022-11-20T05:58:36;95683.97;;;7.31;69.75
12757;BME280;31601;48.042;12.240;2022-11-20T06:01:05;95700.44;;;7.32;69.85
12757;BME280;31601;48.042;12.240;2022-11-20T06:03:33;95688.41;;;7.31;69.85
12757;BME280;31601;48.042;12.240;2022-11-20T06:06:00;95689.56;;;7.28;69.51
12757;BME280;31601;48.042;12.240;2022-11-20T06:08:27;95694.78;;;7.28;69.60
12757;BME280;31601;48.042;12.240;2022-11-20T06:10:54;95703.56;;;7.27;69.57
12757;BME280;31601;48.042;12.240;2022-11-20T06:13:20;95703.91;;;7.24;69.66
12757;BME280;31601;48.042;12.240;2022-11-20T06:15:48;95696.75;;;7.26;69.92
12757;BME280;31601;48.042;12.240;2022-11-20T06:18:15;95694.94;;;7.27;69.51
12757;BME280;31601;48.042;12.240;2022-11-20T06:20:43;95704.41;;;7.28;69.74
12757;BME280;31601;48.042;12.240;2022-11-20T06:23:09;95703.75;;;7.26;69.40
12757;BME280;31601;48.042;12.240;2022-11-20T06:25:37;95709.13;;;7.24;69.62
12757;BME280;31601;48.042;12.240;2022-11-20T06:28:04;95708.34;;;7.24;69.62
12757;BME280;31601;48.042;12.240;2022-11-20T06:30:30;95701.50;;;7.23;69.74
12757;BME280;31601;48.042;12.240;2022-11-20T06:32:57;95709.50;;;7.21;69.42
12757;BME280;31601;48.042;12.240;2022-11-20T06:35:23;95706.53;;;7.24;69.96
12757;BME280;31601;48.042;12.240;2022-11-20T06:37:51;95706.88;;;7.21;69.98
12757;BME280;31601;48.042;12.240;2022-11-20T06:40:18;95712.75;;;7.23;70.06
12757;BME280;31601;48.042;12.240;2022-11-20T06:42:44;95714.72;;;7.21;69.74
12757;BME280;31601;48.042;12.240;2022-11-20T06:45:11;95719.56;;;7.24;69.81
12757;BME280;31601;48.042;12.240;2022-11-20T06:47:37;95716.78;;;7.26;70.00
12757;BME280;31601;48.042;12.240;2022-11-20T06:50:04;95721.47;;;7.15;70.05
12757;BME280;31601;48.042;12.240;2022-11-20T06:52:32;95723.19;;;7.23;69.97
12757;BME280;31601;48.042;12.240;2022-11-20T06:55:00;95721.22;;;7.25;70.05
12757;BME280;31601;48.042;12.240;2022-11-20T06:57:27;95725.72;;;7.31;69.53
12757;BME280;31601;48.042;12.240;2022-11-20T06:59:53;95726.09;;;7.28;70.02
12757;BME280;31601;48.042;12.240;2022-11-20T07:02:20;95733.22;;;7.34;69.53
12757;BME280;31601;48.042;12.240;2022-11-20T07:04:46;95736.00;;;7.33;69.71
12757;BME280;31601;48.042;12.240;2022-11-20T07:07:13;95730.94;;;7.31;69.76
12757;BME280;31601;48.042;12.240;2022-11-20T07:09:39;95739.06;;;7.37;69.92
12757;BME280;31601;48.042;12.240;2022-11-20T07:12:07;95736.75;;;7.42;69.69
12757;BME280;31601;48.042;12.240;2022-11-20T07:14:34;95727.91;;;7.43;69.57
12757;BME280;31601;48.042;12.240;2022-11-20T07:17:01;95736.44;;;7.37;69.59
12757;BME280;31601;48.042;12.240;2022-11-20T07:19:27;95739.28;;;7.50;69.40
12757;BME280;31601;48.042;12.240;2022-11-20T07:21:54;95738.94;;;7.53;69.34
12757;BME280;31601;48.042;12.240;2022-11-20T07:24:21;95752.06;;;7.45;69.16
12757;BME280;31601;48.042;12.240;2022-11-20T07:26:47;95758.19;;;7.52;69.46
12757;BME280;31601;48.042;12.240;2022-11-20T07:29:15;95743.44;;;7.59;68.96
12757;BME280;31601;48.042;12.240;2022-11-20T07:31:42;95750.66;;;7.57;68.71
12757;BME280;31601;48.042;12.240;2022-11-20T07:34:09;95747.72;;;7.52;68.69
12757;BME280;31601;48.042;12.240;2022-11-20T07:36:36;95753.13;;;7.50;68.10
12757;BME280;31601;48.042;12.240;2022-11-20T07:39:02;95751.53;;;7.49;68.62
12757;BME280;31601;48.042;12.240;2022-11-20T07:41:29;95753.03;;;7.44;68.40
12757;BME280;31601;48.042;12.240;2022-11-20T07:43:56;95748.25;;;7.32;68.48
12757;BME280;31601;48.042;12.240;2022-11-20T07:46:24;95746.16;;;7.28;68.73
12757;BME280;31601;48.042;12.240;2022-11-20T07:48:50;95743.03;;;7.32;68.26
12757;BME280;31601;48.042;12.240;2022-11-20T07:51:17;95747.13;;;7.27;68.63
12757;BME280;31601;48.042;12.240;2022-11-20T07:53:44;95751.19;;;7.29;68.36
12757;BME280;31601;48.042;12.240;2022-11-20T07:56:10;95750.72;;;7.26;68.37
12757;BME280;31601;48.042;12.240;2022-11-20T07:58:39;95745.66;;;7.24;68.71
12757;BME280;31601;48.042;12.240;2022-11-20T08:01:06;95752.00;;;7.30;68.93
12757;BME280;31601;48.042;12.240;2022-11-20T08:03:34;95748.50;;;7.38;69.30
12757;BME280;31601;48.042;12.240;2022-11-20T08:06:03;95742.50;;;7.52;68.94
12757;BME280;31601;48.042;12.240;2022-11-20T08:08:30;95748.47;;;7.61;68.68
12757;BME280;31601;48.042;12.240;2022-11-20T08:10:56;95747.59;;;7.68;68.34
12757;BME280;31601;48.042;12.240;2022-11-20T08:13:44;95746.53;;;7.78;68.13
12757;BME280;31601;48.042;12.240;2022-11-20T08:16:28;95746.53;;;7.78;67.71
12757;BME280;31601;48.042;12.240;2022-11-20T08:18:56;95740.94;;;7.81;67.55
12757;BME280;31601;48.042;12.240;2022-11-20T08:21:23;95748.34;;;7.92;67.57
12757;BME280;31601;48.042;12.240;2022-11-20T08:23:49;95739.16;;;7.96;67.65
12757;BME280;31601;48.042;12.240;2022-11-20T08:26:16;95750.78;;;8.09;66.72
12757;BME280;31601;48.042;12.240;2022-11-20T08:28:42;95751.88;;;8.29;66.19
12757;BME280;31601;48.042;12.240;2022-11-20T08:31:09;95750.88;;;8.30;66.31
12757;BME280;31601;48.042;12.240;2022-11-20T08:33:35;95752.91;;;8.80;64.57
12757;BME280;31601;48.042;12.240;2022-11-20T08:36:05;95754.00;;;8.85;64.26
12757;BME280;31601;48.042;12.240;2022-11-20T08:38:32;95751.56;;;8.84;64.08
12757;BME280;31601;48.042;12.240;2022-11-20T08:41:00;95753.50;;;8.96;62.91
12757;BME280;31601;48.042;12.240;2022-11-20T08:43:44;95746.03;;;9.15;62.04
12757;BME280;31601;48.042;12.240;2022-11-20T08:46:11;95751.41;;;9.07;61.63
12757;BME280;31601;48.042;12.240;2022-11-20T08:48:38;95754.50;;;9.17;62.04
12757;BME280;31601;48.042;12.240;2022-11-20T08:51:06;95755.25;;;9.11;62.42
12757;BME280;31601;48.042;12.240;2022-11-20T08:53:32;95745.44;;;9.13;61.96
12757;BME280;31601;48.042;12.240;2022-11-20T08:55:59;95752.34;;;9.21;61.85
12757;BME280;31601;48.042;12.240;2022-11-20T08:58:26;95753.19;;;9.28;61.82
12757;BME280;31601;48.042;12.240;2022-11-20T09:00:53;95755.19;;;9.26;62.17
12757;BME280;31601;48.042;12.240;2022-11-20T09:03:19;95744.13;;;9.24;61.80
12757;BME280;31601;48.042;12.240;2022-11-20T09:05:46;95748.59;;;9.08;61.80
12757;BME280;31601;48.042;12.240;2022-11-20T09:08:14;95751.59;;;9.27;61.86
12757;BME280;31601;48.042;12.240;2022-11-20T09:10:41;95748.22;;;9.33;61.64
12757;BME280;31601;48.042;12.240;2022-11-20T09:13:08;95750.09;;;9.39;61.69
12757;BME280;31601;48.042;12.240;2022-11-20T09:15:34;95751.09;;;9.38;61.56
12757;BME280;31601;48.042;12.240;2022-11-20T09:18:02;95751.31;;;9.43;61.50
12757;BME280;31601;48.042;12.240;2022-11-20T09:20:30;95746.91;;;9.44;61.14
12757;BME280;31601;48.042;12.240;2022-11-20T09:22:57;95750.56;;;9.49;61.14
12757;BME280;31601;48.042;12.240;2022-11-20T09:25:25;95751.97;;;9.45;61.09
12757;BME280;31601;48.042;12.240;2022-11-20T09:27:55;95753.19;;;9.49;60.58
12757;BME280;31601;48.042;12.240;2022-11-20T09:30:21;95756.88;;;9.55;60.58
12757;BME280;31601;48.042;12.240;2022-11-20T09:32:48;95756.38;;;9.45;60.23
12757;BME280;31601;48.042;12.240;2022-11-20T09:35:15;95743.53;;;9.50;60.18
12757;BME280;31601;48.042;12.240;2022-11-20T09:37:43;95743.81;;;9.62;59.71
12757;BME280;31601;48.042;12.240;2022-11-20T09:40:19;95754.94;;;9.64;59.64
12757;BME280;31601;48.042;12.240;2022-11-20T09:42:53;95739.41;;;9.62;59.90
12757;BME280;31601;48.042;12.240;2022-11-20T09:45:30;95739.75;;;9.81;59.56
12757;BME280;31601;48.042;12.240;2022-11-20T09:51:00;95738.16;;;9.86;59.29
12757;BME280;31601;48.042;12.240;2022-11-20T09:53:37;95746.84;;;9.87;58.33
12757;BME280;31601;48.042;12.240;2022-11-20T09:56:10;95748.84;;;9.85;59.04
12757;BME280;31601;48.042;12.240;2022-11-20T09:58:41;95736.41;;;9.94;58.44
12757;BME280;31601;48.042;12.240;2022-11-20T10:01:12;95734.72;;;9.79;57.27
12757;BME280;31601;48.042;12.240;2022-11-20T10:03:49;95732.78;;;9.95;57.29
12757;BME280;31601;48.042;12.240;2022-11-20T10:06:23;95725.53;;;9.97;57.08
12757;BME280;31601;48.042;12.240;2022-11-20T10:08:57;95726.31;;;9.91;56.97
12757;BME280;31601;48.042;12.240;2022-11-20T10:11:32;95726.69;;;9.88;56.19
12757;BME280;31601;48.042;12.240;2022-11-20T10:14:10;95722.91;;;9.97;56.44
12757;BME280;31601;48.042;12.240;2022-11-20T10:16:44;95719.91;;;10.00;56.22
12757;BME280;31601;48.042;12.240;2022-11-20T10:19:28;95715.53;;;10.07;56.44
12757;BME280;31601;48.042;12.240;2022-11-20T10:22:03;95714.28;;;10.03;56.72
12757;BME280;31601;48.042;12.240;2022-11-20T10:24:43;95717.75;;;10.10;56.22
12757;BME280;31601;48.042;12.240;2022-11-20T10:27:26;95707.09;;;10.12;55.42
12757;BME280;31601;48.042;12.240;2022-11-20T10:30:02;95707.78;;;10.27;55.85
12757;BME280;31601;48.042;12.240;2022-11-20T10:32:34;95690.59;;;10.18;54.67
12757;BME280;31601;48.042;12.240;2022-11-20T10:35:05;95689.03;;;10.30;54.88
12757;BME280;31601;48.042;12.240;2022-11-20T10:37:35;95696.38;;;10.48;54.59
12757;BME280;31601;48.042;12.240;2022-11-20T10:40:19;95699.25;;;10.67;53.81
12757;BME280;31601;48.042;12.240;2022-11-20T10:42:50;95690.41;;;10.74;53.08
12757;BME280;31601;48.042;12.240;2022-11-20T10:45:31;95682.94;;;10.78;52.57
12757;BME280;31601;48.042;12.240;2022-11-20T10:48:10;95683.78;;;10.85;52.75
12757;BME280;31601;48.042;12.240;2022-11-20T10:50:40;95678.34;;;11.00;52.56
12757;BME280;31601;48.042;12.240;2022-11-20T10:53:17;95676.31;;;11.09;52.61
12757;BME280;31601;48.042;12.240;2022-11-20T10:55:50;95684.22;;;11.22;52.41
12757;BME280;31601;48.042;12.240;2022-11-20T10:58:25;95676.53;;;11.27;51.91
12757;BME280;31601;48.042;12.240;2022-11-20T11:01:04;95679.16;;;11.27;52.18
12757;BME280;31601;48.042;12.240;2022-11-20T11:03:31;95674.72;;;11.15;51.43
12757;BME280;31601;48.042;12.240;2022-11-20T11:06:03;95666.22;;;11.06;51.59
12757;BME280;31601;48.042;12.240;2022-11-20T11:08:37;95668.81;;;10.86;51.01
12757;BME280;31601;48.042;12.240;2022-11-20T11:11:18;95669.44;;;10.88;50.78
12757;BME280;31601;48.042;12.240;2022-11-20T11:13:46;95670.69;;;11.05;51.00
12757;BME280;31601;48.042;12.240;2022-11-20T11:16:20;95662.97;;;10.90;50.41
12757;BME280;31601;48.042;12.240;2022-11-20T11:18:46;95665.41;;;10.92;50.78
12757;BME280;31601;48.042;12.240;2022-11-20T11:21:13;95661.38;;;10.89;51.14
12757;BME280;31601;48.042;12.240;2022-11-20T11:23:41;95663.41;;;10.94;50.90
12757;BME280;31601;48.042;12.240;2022-11-20T11:26:18;95651.69;;;10.97;50.66
12757;BME280;31601;48.042;12.240;2022-11-20T11:28:53;95653.50;;;10.89;50.11
12757;BME280;31601;48.042;12.240;2022-11-20T11:31:24;95654.13;;;11.05;50.37
12757;BME280;31601;48.042;12.240;2022-11-20T11:33:50;95644.03;;;11.02;51.12
12757;BME280;31601;48.042;12.240;2022-11-20T11:36:20;95643.22;;;11.21;50.40
12757;BME280;31601;48.042;12.240;2022-11-20T11:38:51;95645.84;;;11.35;50.34
12757;BME280;31601;48.042;12.240;2022-11-20T11:41:20;95635.53;;;11.33;50.29
12757;BME280;31601;48.042;12.240;2022-11-20T11:43:51;95636.34;;;11.34;50.49
12757;BME280;31601;48.042;12.240;2022-11-20T11:46:38;95633.75;;;11.20;50.23
12757;BME280;31601;48.042;12.240;2022-11-20T11:49:16;95632.31;;;11.04;49.53
12757;BME280;31601;48.042;12.240;2022-11-20T11:51:52;95636.88;;;10.55;50.06
12757;BME280;31601;48.042;12.240;2022-11-20T11:54:25;95637.47;;;10.51;50.25
12757;BME280;31601;48.042;12.240;2022-11-20T11:56:54;95641.09;;;10.50;50.97
12757;BME280;31601;48.042;12.240;2022-11-20T11:59:26;95630.19;;;10.39;50.90
12757;BME280;31601;48.042;12.240;2022-11-20T12:01:59;95644.59;;;10.15;51.07
12757;BME280;31601;48.042;12.240;2022-11-20T12:04:40;95651.38;;;9.96;51.13
12757;BME280;31601;48.042;12.240;2022-11-20T12:07:11;95642.16;;;10.07;51.15
12757;BME280;31601;48.042;12.240;2022-11-20T12:09:43;95635.28;;;10.13;51.65
12757;BME280;31601;48.042;12.240;2022-11-20T12:12:18;95639.81;;;10.26;51.47
12757;BME280;31601;48.042;12.240;2022-11-20T12:14:48;95634.69;;;10.11;51.66
12757;BME280;31601;48.042;12.240;2022-11-20T12:17:19;95629.28;;;10.19;51.91
12757;BME280;31601;48.042;12.240;2022-11-20T12:19:45;95625.84;;;9.70;52.41
12757;BME280;31601;48.042;12.240;2022-11-20T12:22:26;95629.03;;;9.37;52.29
12757;BME280;31601;48.042;12.240;2022-11-20T12:24:59;95628.47;;;9.42;53.26
12757;BME280;31601;48.042;12.240;2022-11-20T12:28:01;95634.59;;;9.56;53.69
12757;BME280;31601;48.042;12.240;2022-11-20T12:30:32;95631.97;;;9.91;53.07
12757;BME280;31601;48.042;12.240;2022-11-20T12:33:12;95633.31;;;10.15;52.52
12757;BME280;31601;48.042;12.240;2022-11-20T12:35:55;95631.38;;;9.89;53.65
12757;BME280;31601;48.042;12.240;2022-11-20T12:38:47;95631.06;;;10.12;53.22
12757;BME280;31601;48.042;12.240;2022-11-20T12:41:26;95630.31;;;10.25;52.92
12757;BME280;31601;48.042;12.240;2022-11-20T12:44:27;95629.00;;;10.49;52.54
12757;BME280;31601;48.042;12.240;2022-11-20T12:47:19;95632.16;;;10.31;52.35
12757;BME280;31601;48.042;12.240;2022-11-20T12:49:56;95628.81;;;10.50;52.23
12757;BME280;31601;48.042;12.240;2022-11-20T12:52:38;95620.16;;;10.70;51.62
12757;BME280;31601;48.042;12.240;2022-11-20T12:55:16;95620.56;;;10.67;51.34
12757;BME280;31601;48.042;12.240;2022-11-20T12:57:51;95616.72;;;10.63;51.04
12757;BME280;31601;48.042;12.240;2022-11-20T13:00:20;95614.47;;;10.60;51.47
12757;BME280;31601;48.042;12.240;2022-11-20T13:03:16;95615.91;;;10.55;51.35
12757;BME280;31601;48.042;12.240;2022-11-20T13:05:56;95608.03;;;10.62;51.91
12757;BME280;31601;48.042;12.240;2022-11-20T13:08:28;95616.69;;;10.43;51.50
12757;BME280;31601;48.042;12.240;2022-11-20T13:11:00;95610.75;;;10.27;52.17
12757;BME280;31601;48.042;12.240;2022-11-20T13:13:33;95611.16;;;10.24;52.43